createdAt,value
2016-08-03T00:00:57.331Z,956.93
2016-08-03T00:01:57.363Z,956.9
2016-08-03T00:02:57.386Z,956.91
2016-08-03T00:03:57.413Z,956.92
2016-08-03T00:04:57.439Z,956.91
2016-08-03T00:05:57.465Z,956.93
2016-08-03T00:06:57.494Z,956.9
2016-08-03T00:07:57.522Z,956.9
2016-08-03T00:08:57.546Z,956.85
2016-08-03T00:09:57.573Z,956.89
2016-08-03T00:10:57.602Z,956.88
2016-08-03T00:11:57.627Z,956.85
2016-08-03T00:12:57.656Z,956.89
2016-08-03T00:13:57.683Z,956.89
2016-08-03T00:14:57.710Z,956.92
2016-08-03T00:15:57.737Z,956.89
2016-08-03T00:16:57.763Z,956.9
2016-08-03T00:17:57.790Z,956.86
2016-08-03T00:18:57.819Z,956.87
2016-08-03T00:19:57.846Z,956.89
2016-08-03T00:20:57.872Z,956.9
2016-08-03T00:21:57.899Z,956.87
2016-08-03T00:22:57.924Z,956.94
2016-08-03T00:23:57.953Z,956.9
2016-08-03T00:24:57.979Z,956.89
2016-08-03T00:25:58.008Z,956.87
2016-08-03T00:26:58.035Z,956.86
2016-08-03T00:27:58.062Z,956.83
2016-08-03T00:28:58.088Z,956.82
2016-08-03T00:29:58.116Z,956.84
2016-08-03T00:30:58.144Z,956.85
2016-08-03T00:31:58.170Z,956.84
2016-08-03T00:32:58.197Z,956.81
2016-08-03T00:33:58.223Z,956.86
2016-08-03T00:34:58.263Z,956.85
2016-08-03T00:35:58.278Z,956.84
2016-08-03T00:36:58.313Z,956.81
2016-08-03T00:37:58.333Z,956.78
2016-08-03T00:38:58.359Z,956.84
2016-08-03T00:39:58.387Z,956.8
2016-08-03T00:40:58.413Z,956.8
2016-08-03T00:41:58.440Z,956.76
2016-08-03T00:42:58.468Z,956.76
2016-08-03T00:43:58.495Z,956.77
2016-08-03T00:44:58.520Z,956.71
2016-08-03T00:45:58.549Z,956.72
2016-08-03T00:46:58.576Z,956.68
2016-08-03T00:47:58.604Z,956.73
2016-08-03T00:48:58.630Z,956.69
2016-08-03T00:49:58.662Z,956.69
2016-08-03T00:50:58.684Z,956.65
2016-08-03T00:51:58.711Z,956.61
2016-08-03T00:52:58.738Z,956.61
2016-08-03T00:53:58.766Z,956.62
2016-08-03T00:54:58.792Z,956.58
2016-08-03T00:55:58.818Z,956.55
2016-08-03T00:56:58.846Z,956.53
2016-08-03T00:57:58.879Z,956.51
2016-08-03T00:58:58.901Z,956.55
2016-08-03T00:59:58.926Z,956.59
2016-08-03T01:00:59.010Z,956.58
2016-08-03T01:01:58.982Z,956.52
2016-08-03T01:02:59.008Z,956.51
2016-08-03T01:03:59.036Z,956.53
2016-08-03T01:04:59.063Z,956.61
2016-08-03T01:05:59.097Z,956.6
2016-08-03T01:06:59.115Z,956.61
2016-08-03T01:07:59.143Z,956.59
2016-08-03T01:08:59.170Z,956.55
2016-08-03T01:09:59.197Z,956.56
2016-08-03T01:10:59.223Z,956.57
2016-08-03T01:11:59.249Z,956.58
2016-08-03T01:12:59.278Z,956.59
2016-08-03T01:13:59.304Z,956.57
2016-08-03T01:14:59.332Z,956.6
2016-08-03T01:15:59.358Z,956.57
2016-08-03T01:16:59.384Z,956.56
2016-08-03T01:17:59.411Z,956.59
2016-08-03T01:18:59.440Z,956.55
2016-08-03T01:19:59.465Z,956.57
2016-08-03T01:20:59.492Z,956.53
2016-08-03T01:21:59.518Z,956.53
2016-08-03T01:22:59.547Z,956.47
2016-08-03T01:23:59.575Z,956.52
2016-08-03T01:24:59.600Z,956.5
2016-08-03T01:25:59.626Z,956.48
2016-08-03T01:26:59.654Z,956.5
2016-08-03T01:27:59.680Z,956.47
2016-08-03T01:28:59.708Z,956.41
2016-08-03T01:29:59.741Z,956.38
2016-08-03T01:30:59.763Z,956.4
2016-08-03T01:31:59.790Z,956.4
2016-08-03T01:32:59.816Z,956.47
2016-08-03T01:33:59.842Z,956.43
2016-08-03T01:34:59.872Z,956.43
2016-08-03T01:35:59.897Z,956.45
2016-08-03T01:36:59.924Z,956.38
2016-08-03T01:37:59.951Z,956.36
2016-08-03T01:38:59.979Z,956.36
2016-08-03T01:40:00.005Z,956.32
2016-08-03T01:41:00.032Z,956.33
2016-08-03T01:42:00.059Z,956.31
2016-08-03T01:43:00.087Z,956.31
2016-08-03T01:45:00.139Z,956.31
2016-08-03T01:46:00.168Z,956.3
2016-08-03T01:47:00.195Z,956.26
2016-08-03T01:48:00.222Z,956.26
2016-08-03T01:49:00.247Z,956.23
2016-08-03T01:50:00.274Z,956.22
2016-08-03T01:51:00.302Z,956.26
2016-08-03T01:52:00.330Z,956.27
2016-08-03T01:53:00.357Z,956.25
2016-08-03T01:54:00.383Z,956.25
2016-08-03T01:55:00.410Z,956.2
2016-08-03T01:56:00.438Z,956.22
2016-08-03T01:57:00.465Z,956.21
2016-08-03T01:58:00.491Z,956.25
2016-08-03T02:00:00.545Z,956.19
2016-08-03T02:01:00.625Z,956.17
2016-08-03T02:02:00.612Z,956.14
2016-08-03T02:03:00.627Z,956.12
2016-08-03T02:04:00.668Z,956.12
2016-08-03T02:05:00.681Z,956.16
2016-08-03T02:06:00.708Z,956.11
2016-08-03T02:07:00.736Z,956.06
2016-08-03T02:08:00.764Z,956.1
2016-08-03T02:09:00.790Z,956.07
2016-08-03T02:10:00.816Z,956.09
2016-08-03T02:11:00.844Z,956.06
2016-08-03T02:12:00.873Z,956.08
2016-08-03T02:13:00.912Z,956.02
2016-08-03T02:14:00.926Z,956.01
2016-08-03T02:15:00.953Z,956.04
2016-08-03T02:16:00.979Z,956
2016-08-03T02:17:01.006Z,956.04
2016-08-03T02:18:01.034Z,955.99
2016-08-03T02:19:01.062Z,956
2016-08-03T02:20:01.087Z,955.99
2016-08-03T02:21:01.115Z,955.97
2016-08-03T02:22:01.142Z,955.99
2016-08-03T02:23:01.169Z,955.99
2016-08-03T02:24:01.196Z,955.97
2016-08-03T02:25:01.223Z,955.96
2016-08-03T02:26:01.250Z,955.92
2016-08-03T02:27:01.277Z,955.9
2016-08-03T02:28:01.305Z,955.89
2016-08-03T02:29:01.331Z,955.84
2016-08-03T02:30:01.358Z,955.78
2016-08-03T02:31:01.385Z,955.8
2016-08-03T02:32:01.411Z,955.75
2016-08-03T02:33:01.441Z,955.8
2016-08-03T02:34:01.468Z,955.79
2016-08-03T02:35:01.494Z,955.8
2016-08-03T02:36:01.520Z,955.78
2016-08-03T02:37:01.547Z,955.8
2016-08-03T02:38:01.574Z,955.76
2016-08-03T02:39:01.600Z,955.8
2016-08-03T02:40:01.627Z,955.77
2016-08-03T02:41:01.656Z,955.79
2016-08-03T02:42:01.686Z,955.75
2016-08-03T02:43:01.709Z,955.78
2016-08-03T02:44:01.737Z,955.78
2016-08-03T02:45:01.763Z,955.84
2016-08-03T02:46:01.790Z,955.81
2016-08-03T02:47:01.817Z,955.8
2016-08-03T02:48:01.844Z,955.8
2016-08-03T02:49:01.870Z,955.79
2016-08-03T02:50:01.898Z,955.8
2016-08-03T02:51:01.924Z,955.77
2016-08-03T02:52:01.952Z,955.76
2016-08-03T02:53:01.976Z,955.75
2016-08-03T02:54:02.005Z,955.71
2016-08-03T02:55:02.032Z,955.75
2016-08-03T02:56:02.059Z,955.78
2016-08-03T02:57:02.085Z,955.69
2016-08-03T02:58:02.113Z,955.76
2016-08-03T02:59:02.139Z,955.73
2016-08-03T03:00:02.164Z,955.73
2016-08-03T03:01:02.192Z,955.77
2016-08-03T03:02:02.219Z,955.73
2016-08-03T03:03:02.247Z,955.76
2016-08-03T03:04:02.273Z,955.79
2016-08-03T03:05:02.301Z,955.79
2016-08-03T03:06:02.330Z,955.76
2016-08-03T03:07:02.354Z,955.78
2016-08-03T03:08:02.380Z,955.78
2016-08-03T03:09:02.407Z,955.78
2016-08-03T03:10:02.433Z,955.77
2016-08-03T03:11:02.460Z,955.78
2016-08-03T03:12:02.487Z,955.77
2016-08-03T03:13:02.521Z,955.77
2016-08-03T03:14:02.540Z,955.77
2016-08-03T03:15:02.568Z,955.77
2016-08-03T03:16:02.595Z,955.8
2016-08-03T03:17:02.622Z,955.84
2016-08-03T03:18:02.650Z,955.79
2016-08-03T03:19:02.675Z,955.81
2016-08-03T03:20:02.702Z,955.82
2016-08-03T03:21:02.730Z,955.81
2016-08-03T03:22:02.760Z,955.8
2016-08-03T03:23:02.782Z,955.79
2016-08-03T03:24:02.808Z,955.79
2016-08-03T03:25:02.835Z,955.8
2016-08-03T03:26:02.861Z,955.82
2016-08-03T03:27:02.890Z,955.79
2016-08-03T03:28:02.915Z,955.79
2016-08-03T03:29:02.944Z,955.8
2016-08-03T03:30:02.970Z,955.76
2016-08-03T03:31:02.996Z,955.78
2016-08-03T03:32:03.022Z,955.76
2016-08-03T03:33:03.049Z,955.78
2016-08-03T03:34:03.077Z,955.79
2016-08-03T03:35:03.103Z,955.74
2016-08-03T03:36:03.131Z,955.77
2016-08-03T03:37:03.156Z,955.77
2016-08-03T03:38:03.184Z,955.74
2016-08-03T03:39:03.212Z,955.74
2016-08-03T03:40:03.238Z,955.75
2016-08-03T03:41:03.265Z,955.77
2016-08-03T03:42:03.293Z,955.76
2016-08-03T03:43:03.319Z,955.79
2016-08-03T03:44:03.344Z,955.81
2016-08-03T03:45:03.376Z,955.77
2016-08-03T03:46:03.400Z,955.77
2016-08-03T03:47:03.426Z,955.77
2016-08-03T03:48:03.452Z,955.79
2016-08-03T03:49:03.479Z,955.76
2016-08-03T03:50:03.505Z,955.8
2016-08-03T03:51:03.537Z,955.79
2016-08-03T03:52:03.560Z,955.78
2016-08-03T03:53:03.586Z,955.75
2016-08-03T03:54:03.614Z,955.75
2016-08-03T03:55:03.640Z,955.72
2016-08-03T03:56:03.672Z,955.73
2016-08-03T03:57:03.693Z,955.72
2016-08-03T03:58:03.722Z,955.72
2016-08-03T03:59:03.746Z,955.74
2016-08-03T04:00:03.774Z,955.73
2016-08-03T04:01:03.851Z,955.71
2016-08-03T04:02:03.831Z,955.7
2016-08-03T04:03:03.854Z,955.72
2016-08-03T04:04:03.881Z,955.68
2016-08-03T04:05:03.908Z,955.68
2016-08-03T04:06:03.934Z,955.69
2016-08-03T04:07:03.962Z,955.71
2016-08-03T04:08:03.990Z,955.75
2016-08-03T04:09:04.016Z,955.75
2016-08-03T04:10:04.048Z,955.71
2016-08-03T04:11:04.068Z,955.69
2016-08-03T04:12:04.096Z,955.68
2016-08-03T04:13:04.122Z,955.68
2016-08-03T04:14:04.147Z,955.67
2016-08-03T04:15:04.175Z,955.67
2016-08-03T04:16:04.203Z,955.65
2016-08-03T04:17:04.230Z,955.67
2016-08-03T04:18:04.263Z,955.68
2016-08-03T04:19:04.283Z,955.67
2016-08-03T04:20:04.310Z,955.71
2016-08-03T04:21:04.336Z,955.72
2016-08-03T04:22:04.364Z,955.73
2016-08-03T04:23:04.389Z,955.67
2016-08-03T04:24:04.415Z,955.69
2016-08-03T04:25:04.443Z,955.73
2016-08-03T04:26:04.481Z,955.72
2016-08-03T04:27:04.498Z,955.68
2016-08-03T04:28:04.523Z,955.69
2016-08-03T04:29:04.552Z,955.76
2016-08-03T04:30:04.579Z,955.73
2016-08-03T04:31:04.605Z,955.72
2016-08-03T04:32:04.631Z,955.72
2016-08-03T04:33:04.663Z,955.71
2016-08-03T04:34:04.697Z,955.74
2016-08-03T04:35:04.711Z,955.69
2016-08-03T04:36:04.738Z,955.69
2016-08-03T04:37:04.765Z,955.71
2016-08-03T04:38:04.798Z,955.71
2016-08-03T04:39:04.818Z,955.72
2016-08-03T04:40:04.846Z,955.69
2016-08-03T04:41:04.873Z,955.69
2016-08-03T04:42:04.914Z,955.67
2016-08-03T04:43:04.924Z,955.67
2016-08-03T04:44:04.952Z,955.71
2016-08-03T04:45:04.980Z,955.65
2016-08-03T04:46:05.005Z,955.66
2016-08-03T04:47:05.054Z,955.67
2016-08-03T04:48:05.060Z,955.67
2016-08-03T04:49:05.087Z,955.67
2016-08-03T04:50:05.132Z,955.66
2016-08-03T04:51:05.141Z,955.67
2016-08-03T04:52:05.167Z,955.67
2016-08-03T04:53:05.196Z,955.65
2016-08-03T04:54:05.222Z,955.67
2016-08-03T04:55:05.252Z,955.69
2016-08-03T04:56:05.275Z,955.65
2016-08-03T04:57:05.300Z,955.67
2016-08-03T04:58:05.347Z,955.69
2016-08-03T04:59:05.355Z,955.66
2016-08-03T05:00:05.383Z,955.73
2016-08-03T05:01:05.408Z,955.62
2016-08-03T05:02:05.436Z,955.65
2016-08-03T05:03:05.462Z,955.62
2016-08-03T05:04:05.490Z,955.62
2016-08-03T05:05:05.516Z,955.63
2016-08-03T05:06:05.566Z,955.63
2016-08-03T05:07:05.570Z,955.69
2016-08-03T05:08:05.596Z,955.66
2016-08-03T05:09:05.622Z,955.62
2016-08-03T05:10:05.652Z,955.64
2016-08-03T05:11:05.677Z,955.64
2016-08-03T05:12:05.704Z,955.64
2016-08-03T05:13:05.730Z,955.65
2016-08-03T05:14:05.757Z,955.61
2016-08-03T05:15:05.784Z,955.61
2016-08-03T05:16:05.812Z,955.54
2016-08-03T05:17:05.838Z,955.61
2016-08-03T05:18:05.865Z,955.58
2016-08-03T05:19:05.891Z,955.53
2016-08-03T05:20:05.920Z,955.54
2016-08-03T05:21:05.946Z,955.49
2016-08-03T05:22:05.973Z,955.47
2016-08-03T05:23:06.000Z,955.45
2016-08-03T05:24:06.026Z,955.48
2016-08-03T05:25:06.054Z,955.46
2016-08-03T05:26:06.079Z,955.46
2016-08-03T05:27:06.107Z,955.47
2016-08-03T05:28:06.135Z,955.46
2016-08-03T05:29:06.162Z,955.44
2016-08-03T05:30:06.187Z,955.44
2016-08-03T05:31:06.215Z,955.4
2016-08-03T05:32:06.242Z,955.39
2016-08-03T05:33:06.269Z,955.4
2016-08-03T05:34:06.294Z,955.34
2016-08-03T05:35:06.323Z,955.35
2016-08-03T05:36:06.350Z,955.34
2016-08-03T05:37:06.377Z,955.31
2016-08-03T05:38:06.402Z,955.34
2016-08-03T05:39:06.430Z,955.29
2016-08-03T05:40:06.457Z,955.37
2016-08-03T05:41:06.485Z,955.35
2016-08-03T05:42:06.510Z,955.34
2016-08-03T05:43:06.537Z,955.36
2016-08-03T05:44:06.565Z,955.33
2016-08-03T05:46:06.618Z,955.35
2016-08-03T05:47:06.645Z,955.35
2016-08-03T05:48:06.672Z,955.37
2016-08-03T05:49:06.697Z,955.35
2016-08-03T05:50:06.725Z,955.38
2016-08-03T05:51:06.752Z,955.36
2016-08-03T05:52:06.779Z,955.34
2016-08-03T05:53:06.806Z,955.36
2016-08-03T05:54:06.832Z,955.34
2016-08-03T05:55:06.860Z,955.37
2016-08-03T05:56:06.885Z,955.43
2016-08-03T05:57:06.913Z,955.36
2016-08-03T05:58:06.940Z,955.37
2016-08-03T05:59:06.967Z,955.35
2016-08-03T06:00:06.995Z,955.34
2016-08-03T06:01:07.023Z,955.35
2016-08-03T06:02:07.050Z,955.38
2016-08-03T06:03:07.076Z,955.37
2016-08-03T06:04:07.102Z,955.34
2016-08-03T06:05:07.130Z,955.33
2016-08-03T06:06:07.157Z,955.34
2016-08-03T06:07:07.184Z,955.33
2016-08-03T06:08:07.211Z,955.35
2016-08-03T06:09:07.239Z,955.29
2016-08-03T06:10:07.267Z,955.31
2016-08-03T06:11:07.291Z,955.25
2016-08-03T06:12:07.318Z,955.27
2016-08-03T06:13:07.346Z,955.26
2016-08-03T06:14:07.372Z,955.27
2016-08-03T06:15:07.401Z,955.26
2016-08-03T06:16:07.429Z,955.25
2016-08-03T06:17:07.463Z,955.25
2016-08-03T06:18:07.483Z,955.23
2016-08-03T06:19:07.509Z,955.25
2016-08-03T06:20:07.537Z,955.25
2016-08-03T06:21:07.565Z,955.26
2016-08-03T06:22:07.592Z,955.19
2016-08-03T06:23:07.619Z,955.16
2016-08-03T06:24:07.646Z,955.18
2016-08-03T06:25:07.674Z,955.15
2016-08-03T06:26:07.700Z,955.15
2016-08-03T06:27:07.729Z,955.14
2016-08-03T06:28:07.756Z,955.14
2016-08-03T06:29:07.784Z,955.11
2016-08-03T06:30:07.810Z,955.14
2016-08-03T06:31:07.838Z,955.13
2016-08-03T06:32:07.866Z,955.09
2016-08-03T06:33:07.893Z,955.09
2016-08-03T06:34:07.998Z,955.1
2016-08-03T06:35:07.948Z,955.04
2016-08-03T06:36:07.975Z,955.05
2016-08-03T06:37:08.004Z,955.04
2016-08-03T06:38:08.032Z,955.07
2016-08-03T06:39:08.059Z,955.03
2016-08-03T06:40:08.085Z,955.02
2016-08-03T06:41:08.113Z,955.01
2016-08-03T06:42:08.141Z,955.03
2016-08-03T06:43:08.169Z,955
2016-08-03T06:44:08.195Z,955.02
2016-08-03T06:45:08.224Z,955.03
2016-08-03T06:46:08.251Z,955.05
2016-08-03T06:47:08.280Z,955.03
2016-08-03T06:48:08.308Z,955.03
2016-08-03T06:49:08.336Z,955.07
2016-08-03T06:50:08.386Z,955.07
2016-08-03T06:51:08.391Z,955.07
2016-08-03T06:52:08.419Z,955.09
2016-08-03T06:53:08.447Z,955.07
2016-08-03T06:54:08.475Z,955.1
2016-08-03T06:55:08.503Z,955.11
2016-08-03T06:56:08.531Z,955.12
2016-08-03T06:57:08.558Z,955.1
2016-08-03T06:58:08.603Z,955.1
2016-08-03T06:59:08.616Z,955.11
2016-08-03T07:00:08.643Z,955.1
2016-08-03T07:01:08.671Z,955.07
2016-08-03T07:02:08.700Z,955.07
2016-08-03T07:03:08.727Z,955.11
2016-08-03T07:04:08.755Z,955.1
2016-08-03T07:05:08.782Z,955.09
2016-08-03T07:06:08.820Z,955.11
2016-08-03T07:07:08.839Z,955.09
2016-08-03T07:08:08.868Z,955.09
2016-08-03T07:09:08.896Z,955.07
2016-08-03T07:10:08.924Z,955.07
2016-08-03T07:11:08.953Z,955.09
2016-08-03T07:12:08.980Z,955.03
2016-08-03T07:13:09.009Z,955.05
2016-08-03T07:14:09.037Z,955.05
2016-08-03T07:15:09.066Z,954.98
2016-08-03T07:16:09.094Z,954.97
2016-08-03T07:17:09.122Z,955
2016-08-03T07:18:09.151Z,955.02
2016-08-03T07:19:09.181Z,955
2016-08-03T07:20:09.207Z,955
2016-08-03T07:21:09.235Z,954.97
2016-08-03T07:22:09.269Z,955.01
2016-08-03T07:23:09.292Z,955.02
2016-08-03T07:24:09.321Z,955
2016-08-03T07:25:09.351Z,955.01
2016-08-03T07:26:09.378Z,955.04
2016-08-03T07:27:09.405Z,954.92
2016-08-03T07:28:09.438Z,954.99
2016-08-03T07:29:09.464Z,954.92
2016-08-03T07:30:09.493Z,954.92
2016-08-03T07:31:09.521Z,954.93
2016-08-03T07:32:09.549Z,954.94
2016-08-03T07:33:09.581Z,954.92
2016-08-03T07:34:09.606Z,954.93
2016-08-03T07:35:09.636Z,954.92
2016-08-03T07:36:09.665Z,954.9
2016-08-03T07:37:09.693Z,954.89
2016-08-03T07:38:09.720Z,954.94
2016-08-03T07:39:09.751Z,954.84
2016-08-03T07:40:09.778Z,954.87
2016-08-03T07:41:09.808Z,954.89
2016-08-03T07:42:09.836Z,954.85
2016-08-03T07:43:09.866Z,954.87
2016-08-03T07:44:09.895Z,954.78
2016-08-03T07:45:09.924Z,954.85
2016-08-03T07:46:09.954Z,954.84
2016-08-03T07:47:09.999Z,954.8
2016-08-03T07:48:10.011Z,954.81
2016-08-03T07:49:10.039Z,954.83
2016-08-03T07:50:10.068Z,954.79
2016-08-03T07:51:10.099Z,954.78
2016-08-03T07:52:10.128Z,954.78
2016-08-03T07:53:10.156Z,954.72
2016-08-03T07:54:10.185Z,954.71
2016-08-03T07:55:10.215Z,954.74
2016-08-03T07:56:10.244Z,954.73
2016-08-03T07:57:10.274Z,954.72
2016-08-03T07:58:10.303Z,954.69
2016-08-03T07:59:10.331Z,954.7
2016-08-03T08:00:10.361Z,954.7
2016-08-03T08:01:10.389Z,954.74
2016-08-03T08:02:10.420Z,954.72
2016-08-03T08:03:10.449Z,954.66
2016-08-03T08:04:10.478Z,954.7
2016-08-03T08:05:10.507Z,954.68
2016-08-03T08:06:10.537Z,954.71
2016-08-03T08:07:10.566Z,954.74
2016-08-03T08:08:11.081Z,954.65
2016-08-03T08:09:11.067Z,954.64
2016-08-03T08:10:10.655Z,954.64
2016-08-03T08:11:10.709Z,954.63
2016-08-03T08:12:10.714Z,954.61
2016-08-03T08:13:10.746Z,954.59
2016-08-03T08:14:10.776Z,954.59
2016-08-03T08:15:10.804Z,954.61
2016-08-03T08:16:10.833Z,954.55
2016-08-03T08:17:10.862Z,954.57
2016-08-03T08:18:10.894Z,954.57
2016-08-03T08:19:10.924Z,954.55
2016-08-03T08:20:10.953Z,954.57
2016-08-03T08:21:10.984Z,954.58
2016-08-03T08:22:11.014Z,954.57
2016-08-03T08:23:11.043Z,954.56
2016-08-03T08:24:11.080Z,954.58
2016-08-03T08:25:11.105Z,954.57
2016-08-03T08:26:11.136Z,954.53
2016-08-03T08:27:11.164Z,954.56
2016-08-03T08:28:11.196Z,954.54
2016-08-03T08:29:11.226Z,954.53
2016-08-03T08:30:11.255Z,954.51
2016-08-03T08:31:11.738Z,954.45
2016-08-03T08:32:11.840Z,954.44
2016-08-03T08:33:11.346Z,954.43
2016-08-03T08:34:11.377Z,954.4
2016-08-03T08:35:11.407Z,954.37
2016-08-03T08:36:11.450Z,954.39
2016-08-03T08:37:11.467Z,954.36
2016-08-03T08:38:11.497Z,954.33
2016-08-03T08:39:11.529Z,954.38
2016-08-03T08:40:11.557Z,954.39
2016-08-03T08:41:11.587Z,954.37
2016-08-03T08:42:11.619Z,954.38
2016-08-03T08:43:11.647Z,954.35
2016-08-03T08:44:11.683Z,954.42
2016-08-03T08:45:11.709Z,954.37
2016-08-03T08:46:11.739Z,954.38
2016-08-03T08:47:11.768Z,954.37
2016-08-03T08:48:11.798Z,954.36
2016-08-03T08:49:11.829Z,954.4
2016-08-03T08:50:11.860Z,954.44
2016-08-03T08:51:11.890Z,954.38
2016-08-03T08:52:11.944Z,954.39
2016-08-03T08:53:11.953Z,954.43
2016-08-03T08:54:11.983Z,954.39
2016-08-03T08:55:12.012Z,954.4
2016-08-03T08:56:12.043Z,954.39
2016-08-03T08:57:12.075Z,954.47
2016-08-03T08:58:12.104Z,954.4
2016-08-03T08:59:12.133Z,954.35
2016-08-03T09:00:12.166Z,954.34
2016-08-03T09:01:12.254Z,954.4
2016-08-03T09:02:12.226Z,954.39
2016-08-03T09:03:12.257Z,954.42
2016-08-03T09:04:12.288Z,954.4
2016-08-03T09:05:12.318Z,954.42
2016-08-03T09:06:12.350Z,954.39
2016-08-03T09:07:12.380Z,954.4
2016-08-03T09:08:12.410Z,954.37
2016-08-03T09:09:12.441Z,954.35
2016-08-03T09:10:12.472Z,954.4
2016-08-03T09:11:12.504Z,954.4
2016-08-03T09:12:12.535Z,954.36
2016-08-03T09:13:12.566Z,954.38
2016-08-03T09:14:12.596Z,954.31
2016-08-03T09:15:12.628Z,954.34
2016-08-03T09:16:12.658Z,954.34
2016-08-03T09:17:12.688Z,954.32
2016-08-03T09:18:12.722Z,954.27
2016-08-03T09:19:12.751Z,954.29
2016-08-03T09:20:12.782Z,954.28
2016-08-03T09:21:12.813Z,954.28
2016-08-03T09:22:12.846Z,954.22
2016-08-03T09:23:12.875Z,954.25
2016-08-03T09:24:12.906Z,954.21
2016-08-03T09:25:12.938Z,954.24
2016-08-03T09:26:12.971Z,954.29
2016-08-03T09:27:13.002Z,954.33
2016-08-03T09:28:13.033Z,954.3
2016-08-03T09:29:13.064Z,954.22
2016-08-03T09:30:13.095Z,954.26
2016-08-03T09:31:13.126Z,954.26
2016-08-03T09:32:13.158Z,954.17
2016-08-03T09:33:13.195Z,954.16
2016-08-03T09:34:13.223Z,954.14
2016-08-03T09:35:13.252Z,954.13
2016-08-03T09:36:13.283Z,954.05
2016-08-03T09:37:13.315Z,954.05
2016-08-03T09:38:13.351Z,954.06
2016-08-03T09:39:13.377Z,954.11
2016-08-03T09:40:13.410Z,954.04
2016-08-03T09:41:13.442Z,954.03
2016-08-03T09:42:13.492Z,954.08
2016-08-03T09:43:13.505Z,954.06
2016-08-03T09:44:13.537Z,954.03
2016-08-03T09:45:13.568Z,954.09
2016-08-03T09:46:13.598Z,954.03
2016-08-03T09:47:13.631Z,954.05
2016-08-03T09:48:13.663Z,954.03
2016-08-03T09:49:13.693Z,954.05
2016-08-03T09:50:13.727Z,954.05
2016-08-03T09:51:13.756Z,954.08
2016-08-03T09:52:13.789Z,954.06
2016-08-03T09:53:13.821Z,954.04
2016-08-03T09:54:13.853Z,954.05
2016-08-03T09:55:13.885Z,954.05
2016-08-03T09:56:13.919Z,954.04
2016-08-03T09:57:13.947Z,954.03
2016-08-03T09:58:13.984Z,954.01
2016-08-03T09:59:14.011Z,954.01
2016-08-03T10:00:14.044Z,953.99
2016-08-03T10:01:14.075Z,953.94
2016-08-03T10:02:14.107Z,954.02
2016-08-03T10:03:14.138Z,954.02
2016-08-03T10:04:14.170Z,953.98
2016-08-03T10:05:14.205Z,954.01
2016-08-03T10:06:14.235Z,954.01
2016-08-03T10:07:14.268Z,953.98
2016-08-03T10:08:14.298Z,953.97
2016-08-03T10:09:14.329Z,953.95
2016-08-03T10:10:14.362Z,953.96
2016-08-03T10:11:14.392Z,954.01
2016-08-03T10:12:14.424Z,953.96
2016-08-03T10:13:14.458Z,953.97
2016-08-03T10:14:14.489Z,953.96
2016-08-03T10:15:14.521Z,953.98
2016-08-03T10:17:14.586Z,953.97
2016-08-03T10:18:14.618Z,953.93
2016-08-03T10:19:14.649Z,954
2016-08-03T10:20:14.681Z,953.9
2016-08-03T10:21:14.713Z,953.93
2016-08-03T10:22:14.745Z,953.89
2016-08-03T10:23:14.787Z,953.88
2016-08-03T10:24:14.809Z,953.88
2016-08-03T10:25:14.842Z,953.85
2016-08-03T10:26:14.871Z,953.85
2016-08-03T10:27:14.906Z,953.85
2016-08-03T10:28:14.938Z,953.88
2016-08-03T10:29:14.975Z,953.88
2016-08-03T10:30:15.000Z,953.85
2016-08-03T10:32:15.066Z,953.85
2016-08-03T10:33:15.098Z,953.8
2016-08-03T10:34:15.131Z,953.79
2016-08-03T10:35:15.162Z,953.77
2016-08-03T10:36:15.195Z,953.79
2016-08-03T10:37:15.226Z,953.75
2016-08-03T10:38:15.259Z,953.76
2016-08-03T10:39:15.291Z,953.77
2016-08-03T10:40:15.329Z,953.77
2016-08-03T10:41:15.356Z,953.78
2016-08-03T10:42:15.387Z,953.81
2016-08-03T10:43:15.420Z,953.74
2016-08-03T10:44:15.451Z,953.79
2016-08-03T10:45:15.484Z,953.73
2016-08-03T10:47:15.554Z,953.67
2016-08-03T10:48:15.591Z,953.65
2016-08-03T10:49:15.613Z,953.61
2016-08-03T10:50:15.645Z,953.62
2016-08-03T10:51:15.678Z,953.64
2016-08-03T10:52:15.709Z,953.58
2016-08-03T10:53:15.742Z,953.57
2016-08-03T10:54:15.775Z,953.57
2016-08-03T10:55:15.808Z,953.58
2016-08-03T10:56:15.839Z,953.58
2016-08-03T10:57:15.874Z,953.5
2016-08-03T10:58:15.906Z,953.56
2016-08-03T10:59:15.937Z,953.51
2016-08-03T11:00:15.971Z,953.51
2016-08-03T11:02:16.037Z,953.51
2016-08-03T11:03:16.070Z,953.49
2016-08-03T11:04:16.099Z,953.5
2016-08-03T11:05:16.134Z,953.5
2016-08-03T11:06:16.165Z,953.45
2016-08-03T11:07:16.199Z,953.48
2016-08-03T11:08:16.232Z,953.47
2016-08-03T11:09:16.266Z,953.41
2016-08-03T11:10:16.297Z,953.4
2016-08-03T11:11:16.330Z,953.46
2016-08-03T11:12:16.363Z,953.43
2016-08-03T11:13:16.396Z,953.44
2016-08-03T11:14:16.427Z,953.37
2016-08-03T11:15:16.460Z,953.36
2016-08-03T11:16:16.493Z,953.36
2016-08-03T11:17:16.526Z,953.4
2016-08-03T11:18:16.559Z,953.34
2016-08-03T11:19:16.592Z,953.41
2016-08-03T11:20:16.627Z,953.33
2016-08-03T11:21:16.662Z,953.39
2016-08-03T11:22:16.703Z,953.45
2016-08-03T11:23:16.725Z,953.38
2016-08-03T11:24:16.757Z,953.35
2016-08-03T11:25:16.789Z,953.28
2016-08-03T11:26:16.822Z,953.32
2016-08-03T11:27:16.855Z,953.29
2016-08-03T11:28:16.890Z,953.29
2016-08-03T11:29:16.922Z,953.3
2016-08-03T11:30:16.954Z,953.4
2016-08-03T11:31:16.988Z,953.33
2016-08-03T11:32:17.020Z,953.3
2016-08-03T11:33:17.053Z,953.33
2016-08-03T11:34:17.088Z,953.35
2016-08-03T11:35:17.120Z,953.36
2016-08-03T11:36:17.154Z,953.32
2016-08-03T11:37:17.192Z,953.32
2016-08-03T11:38:17.226Z,953.32
2016-08-03T11:39:17.253Z,953.29
2016-08-03T11:40:17.357Z,953.36
2016-08-03T11:41:17.318Z,953.38
2016-08-03T11:42:17.352Z,953.33
2016-08-03T11:43:17.385Z,953.41
2016-08-03T11:44:17.419Z,953.34
2016-08-03T11:45:17.452Z,953.3
2016-08-03T11:46:17.485Z,953.25
2016-08-03T11:47:17.520Z,953.28
2016-08-03T11:48:17.551Z,953.37
2016-08-03T11:49:17.584Z,953.28
2016-08-03T11:50:17.617Z,953.28
2016-08-03T11:51:17.652Z,953.26
2016-08-03T11:52:17.685Z,953.24
2016-08-03T11:53:17.717Z,953.27
2016-08-03T11:54:17.750Z,953.27
2016-08-03T11:55:17.784Z,953.3
2016-08-03T11:56:17.816Z,953.27
2016-08-03T11:57:17.848Z,953.29
2016-08-03T11:58:17.881Z,953.27
2016-08-03T11:59:17.916Z,953.33
2016-08-03T12:00:17.950Z,953.29
2016-08-03T12:01:17.982Z,953.27
2016-08-03T12:02:18.014Z,953.27
2016-08-03T12:03:18.048Z,953.26
2016-08-03T12:04:18.092Z,953.25
2016-08-03T12:05:18.115Z,953.24
2016-08-03T12:06:18.150Z,953.2
2016-08-03T12:07:18.183Z,953.2
2016-08-03T12:08:18.215Z,953.16
2016-08-03T12:09:18.248Z,953.14
2016-08-03T12:10:18.282Z,953.16
2016-08-03T12:11:18.317Z,953.16
2016-08-03T12:12:18.367Z,953.13
2016-08-03T12:13:18.381Z,953.17
2016-08-03T12:14:18.416Z,953.15
2016-08-03T12:15:18.450Z,953.16
2016-08-03T12:16:18.482Z,953.2
2016-08-03T12:17:18.516Z,953.17
2016-08-03T12:18:18.549Z,953.2
2016-08-03T12:19:18.583Z,953.12
2016-08-03T12:20:18.616Z,953.12
2016-08-03T12:21:18.850Z,953.17
2016-08-03T12:22:18.683Z,953.17
2016-08-03T12:23:18.724Z,953.19
2016-08-03T12:24:18.749Z,953.11
2016-08-03T12:25:18.783Z,953.12
2016-08-03T12:26:18.818Z,953.08
2016-08-03T12:27:18.852Z,953.07
2016-08-03T12:28:18.886Z,953.07
2016-08-03T12:29:18.917Z,952.98
2016-08-03T12:30:18.951Z,953.06
2016-08-03T12:31:18.986Z,953.04
2016-08-03T12:32:19.018Z,952.97
2016-08-03T12:33:19.052Z,952.97
2016-08-03T12:34:19.089Z,953
2016-08-03T12:35:19.124Z,953.04
2016-08-03T12:36:19.154Z,952.99
2016-08-03T12:37:19.190Z,952.96
2016-08-03T12:38:19.220Z,952.92
2016-08-03T12:39:19.254Z,952.89